Time;durP1;ratioP1;P1;durP2;ratioP2;P2;SDS_P1;SDS_P2;PMS_P1;PMS_P2;Temp;Humidity;BMP_temperature;BMP_pressure;BME280_temperature;BME280_humidity;BME280_pressure;Samples;Min_cycle;Max_cycle;Signal;HPM_P1;HPM_P2
2021/05/14 00:01:28;;;;;;;7.47;5.40;;;;;;;13.02;75.07;98754.95;1673451;84;21052;-71
2021/05/14 00:03:55;;;;;;;8.20;6.33;;;;;;;13.04;74.90;98757.45;1694987;84;21091;-70
2021/05/14 00:06:21;;;;;;;7.90;6.20;;;;;;;13.10;74.96;98751.55;1675071;84;21094;-71
2021/05/14 00:08:47;;;;;;;9.55;7.05;;;;;;;13.06;75.09;98754.17;1700670;83;21038;-70
2021/05/14 00:11:14;;;;;;;9.80;6.55;;;;;;;12.97;75.41;98761.67;1697797;84;21617;-70
2021/05/14 00:13:40;;;;;;;6.60;5.70;;;;;;;12.92;75.59;98760.80;1697694;83;21065;-70
2021/05/14 00:16:08;;;;;;;6.67;5.55;;;;;;;12.93;75.66;98760.65;1674816;84;21062;-71
2021/05/14 00:18:35;;;;;;;8.83;6.25;;;;;;;13.06;75.36;98754.99;1697897;84;21070;-71
2021/05/14 00:21:03;;;;;;;8.40;6.42;;;;;;;13.08;75.38;98755.69;1677522;84;21072;-71
2021/05/14 00:23:29;;;;;;;8.35;6.28;;;;;;;13.02;75.49;98750.11;1677513;84;21588;-71
2021/05/14 00:25:56;;;;;;;14.30;6.53;;;;;;;13.02;75.53;98741.68;1659585;86;22164;-71
2021/05/14 00:28:22;;;;;;;7.22;5.85;;;;;;;13.17;75.12;98742.02;1689998;84;21124;-71
2021/05/14 00:30:48;;;;;;;8.03;6.65;;;;;;;13.19;75.36;98745.34;1695289;84;21061;-71
2021/05/14 00:33:15;;;;;;;8.60;6.80;;;;;;;13.19;75.36;98745.34;1691113;84;22525;-71
2021/05/14 00:35:41;;;;;;;6.72;5.95;;;;;;;13.17;75.23;98743.82;1721170;83;21029;-71
2021/05/14 00:38:07;;;;;;;9.83;6.05;;;;;;;13.14;75.26;98733.52;1706055;83;21073;-71
2021/05/14 00:40:34;;;;;;;7.65;5.97;;;;;;;13.15;75.29;98735.19;1721677;82;21081;-70
2021/05/14 00:43:00;;;;;;;8.20;6.55;;;;;;;13.26;74.92;98734.48;1697334;82;21122;-70
2021/05/14 00:45:27;;;;;;;8.13;6.87;;;;;;;13.22;74.98;98733.11;1675093;85;21050;-70
2021/05/14 00:47:53;;;;;;;8.73;5.67;;;;;;;13.11;75.17;98732.00;1682565;84;21102;-70
2021/05/14 00:50:21;;;;;;;8.10;5.67;;;;;;;13.08;75.28;98731.80;1719203;82;21094;-70
2021/05/14 00:52:47;;;;;;;8.58;6.42;;;;;;;13.16;75.07;98725.74;1706310;82;21067;-70
2021/05/14 00:55:13;;;;;;;7.85;5.12;;;;;;;13.12;74.99;98728.36;1717256;82;21025;-71
2021/05/14 00:57:40;;;;;;;7.87;5.47;;;;;;;13.01;75.46;98720.09;1714453;84;21018;-71
2021/05/14 01:00:08;;;;;;;8.10;5.08;;;;;;;12.92;75.52;98727.13;1716319;82;21562;-70
2021/05/14 01:02:34;;;;;;;8.13;6.12;;;;;;;12.95;75.45;98734.81;1681521;84;21090;-71
2021/05/14 01:05:01;;;;;;;8.15;6.30;;;;;;;12.87;75.75;98728.57;1711501;82;21011;-71
2021/05/14 01:07:28;;;;;;;8.23;5.58;;;;;;;12.87;75.75;98728.57;1718900;82;21570;-71
2021/05/14 01:09:54;;;;;;;7.50;5.72;;;;;;;12.79;75.88;98724.83;1709087;84;21554;-71
2021/05/14 01:12:20;;;;;;;8.10;5.58;;;;;;;12.90;75.59;98729.11;1722344;82;21058;-71
2021/05/14 01:14:47;;;;;;;9.35;6.47;;;;;;;12.97;75.31;98727.17;1710693;82;21078;-71
2021/05/14 01:17:14;;;;;;;8.30;6.15;;;;;;;12.93;75.36;98722.67;1670720;84;21081;-71
2021/05/14 01:19:40;;;;;;;7.67;5.53;;;;;;;12.90;75.22;98732.24;1718392;82;21047;-71
2021/05/14 01:22:06;;;;;;;7.17;5.15;;;;;;;12.92;75.18;98721.82;1678529;84;21637;-71
2021/05/14 01:24:33;;;;;;;8.93;5.85;;;;;;;13.02;74.80;98721.78;1675333;84;21598;-72
2021/05/14 01:27:01;;;;;;;8.08;6.53;;;;;;;12.91;74.72;98721.47;1710430;82;21613;-72
2021/05/14 01:29:28;;;;;;;6.72;5.10;;;;;;;12.91;74.72;98721.47;1696606;84;21679;-71
2021/05/14 01:31:55;;;;;;;8.38;5.28;;;;;;;12.89;74.74;98722.13;1692040;84;21046;-71
2021/05/14 01:34:21;;;;;;;7.97;6.03;;;;;;;12.99;74.48;98730.52;1718211;82;21554;-71
2021/05/14 01:36:47;;;;;;;8.50;5.67;;;;;;;12.95;74.51;98721.55;1681264;84;21047;-70
2021/05/14 01:39:23;;;;;;;8.40;6.42;;;;;;;12.84;74.84;98723.06;1745654;82;21137;-70
2021/05/14 01:41:47;;;;;;;9.33;6.45;;;;;;;12.74;75.05;98718.30;1725467;82;21022;-70
2021/05/14 01:44:13;;;;;;;10.58;7.67;;;;;;;12.78;75.04;98715.69;1723611;82;21075;-70
2021/05/14 01:46:40;;;;;;;9.43;7.97;;;;;;;12.84;74.87;98708.47;1721846;82;21127;-70
2021/05/14 01:49:06;;;;;;;9.90;7.65;;;;;;;12.79;74.99;98713.39;1718319;82;21558;-70
2021/05/14 01:51:33;;;;;;;9.85;7.22;;;;;;;12.72;75.15;98710.97;1738228;82;21578;-70
2021/05/14 01:54:00;;;;;;;9.95;7.65;;;;;;;12.76;74.99;98713.66;1712089;82;21050;-70
2021/05/14 01:56:27;;;;;;;9.75;7.28;;;;;;;12.81;74.75;98708.75;1712259;82;21054;-70
2021/05/14 01:58:53;;;;;;;10.32;7.12;;;;;;;12.75;74.78;98710.19;1683199;84;21052;-70
2021/05/14 02:01:19;;;;;;;8.68;6.28;;;;;;;12.67;74.98;98711.91;1701611;83;21117;-70
2021/05/14 02:03:46;;;;;;;9.20;7.25;;;;;;;12.71;74.81;98714.60;1728411;82;21086;-72
2021/05/14 02:06:12;;;;;;;9.90;6.58;;;;;;;12.78;74.68;98717.02;1658064;84;21063;-71
2021/05/14 02:08:39;;;;;;;8.00;6.75;;;;;;;12.71;74.83;98715.92;1675225;84;21590;-71
2021/05/14 02:11:09;;;;;;;6.92;5.70;;;;;;;12.65;74.96;98713.38;1743085;82;21058;-72
2021/05/14 02:13:34;;;;;;;9.60;6.42;;;;;;;12.67;74.99;98705.27;1668540;85;21128;-71
2021/05/14 02:16:00;;;;;;;8.78;6.72;;;;;;;12.77;74.74;98692.80;1673509;84;21070;-70
2021/05/14 02:18:26;;;;;;;6.78;5.97;;;;;;;12.75;74.74;98696.10;1722296;82;21074;-70
2021/05/14 02:20:52;;;;;;;10.28;6.10;;;;;;;12.69;74.76;98695.36;1719820;82;21062;-69
2021/05/14 02:23:19;;;;;;;11.53;5.90;;;;;;;12.69;74.76;98695.36;1678186;84;21417;-70
2021/05/14 02:25:45;;;;;;;8.00;6.33;;;;;;;12.84;74.29;98699.19;1673696;85;21049;-70
2021/05/14 02:28:11;;;;;;;8.60;6.40;;;;;;;12.88;74.09;98699.23;1717346;82;21098;-70
2021/05/14 02:30:37;;;;;;;8.23;6.10;;;;;;;12.84;74.20;98689.91;1716442;82;21031;-70
2021/05/14 02:33:06;;;;;;;7.85;6.00;;;;;;;12.81;74.28;98688.86;1690368;83;21361;-71
2021/05/14 02:35:33;;;;;;;8.13;6.25;;;;;;;12.90;74.12;98691.11;1691837;84;21074;-71
2021/05/14 02:37:59;;;;;;;9.95;6.70;;;;;;;12.95;73.87;98685.72;1708162;82;21082;-71
2021/05/14 02:40:25;;;;;;;10.25;6.95;;;;;;;12.87;73.76;98687.44;1640081;86;21049;-71
2021/05/14 02:42:52;;;;;;;8.13;5.50;;;;;;;12.87;73.76;98687.44;1737571;82;21539;-71
2021/05/14 02:45:18;;;;;;;7.97;6.33;;;;;;;12.90;73.51;98676.05;1680596;84;21082;-71
2021/05/14 02:47:44;;;;;;;9.40;6.47;;;;;;;13.00;73.17;98677.80;1684880;84;21074;-71
2021/05/14 02:50:12;;;;;;;7.80;6.17;;;;;;;11.37;73.08;98430.87;1733749;82;21566;-71
2021/05/14 02:52:38;;;;;;;6.92;5.47;;;;;;;12.82;73.44;98673.79;1711211;82;21104;-71
2021/05/14 02:55:07;;;;;;;10.03;6.12;;;;;;;12.80;73.33;98683.23;1677037;84;21641;-71
2021/05/14 02:57:33;;;;;;;8.30;6.22;;;;;;;12.89;72.92;98678.34;1645907;86;21170;-70
2021/05/14 03:00:00;;;;;;;8.55;6.37;;;;;;;12.89;72.92;98678.34;1689825;82;21049;-70
2021/05/14 03:02:26;;;;;;;9.33;6.22;;;;;;;12.84;72.94;98676.64;1675702;84;21081;-72
2021/05/14 03:04:53;;;;;;;6.97;5.65;;;;;;;12.85;72.91;98674.80;1655023;86;21082;-71
2021/05/14 03:07:20;;;;;;;10.35;6.37;;;;;;;12.99;72.58;98680.09;1687085;84;21066;-71
2021/05/14 03:09:46;;;;;;;9.80;7.05;;;;;;;13.02;72.35;98681.11;1669899;86;21110;-70
2021/05/14 03:12:14;;;;;;;9.78;6.97;;;;;;;12.97;72.40;98679.41;1704180;82;21062;-72
2021/05/14 03:14:40;;;;;;;7.65;5.90;;;;;;;12.93;72.48;98679.71;1710689;82;21050;-70
2021/05/14 03:17:06;;;;;;;9.95;6.87;;;;;;;13.05;72.28;98672.88;1705785;84;21062;-70
2021/05/14 03:19:33;;;;;;;9.85;7.42;;;;;;;13.17;71.97;98673.47;1709885;82;21083;-71
2021/05/14 03:21:59;;;;;;;9.40;7.03;;;;;;;13.17;71.93;98672.15;1706579;84;21057;-71
2021/05/14 03:24:26;;;;;;;8.83;6.10;;;;;;;13.14;72.03;98674.61;1703084;82;21074;-70
2021/05/14 03:26:53;;;;;;;10.32;6.35;;;;;;;13.21;71.75;98672.18;1717114;82;21085;-70
2021/05/14 03:29:20;;;;;;;12.03;7.00;;;;;;;13.34;71.31;98678.44;1674677;84;21110;-72
2021/05/14 03:31:47;;;;;;;9.95;7.15;;;;;;;13.33;71.25;98676.80;1700177;82;21042;-71
2021/05/14 03:34:13;;;;;;;10.98;6.87;;;;;;;13.22;71.35;98681.34;1711780;82;21334;-71
2021/05/14 03:36:40;;;;;;;10.20;7.15;;;;;;;13.20;71.45;98679.83;1709248;84;21098;-72
2021/05/14 03:39:10;;;;;;;10.48;7.67;;;;;;;13.31;71.30;98684.06;1715816;82;21081;-72
2021/05/14 03:41:50;;;;;;;10.58;8.05;;;;;;;13.28;71.20;98683.37;1732483;83;21644;-70
2021/05/14 03:44:14;;;;;;;9.05;6.83;;;;;;;13.25;71.45;98692.98;1703986;83;21089;-71
2021/05/14 03:46:41;;;;;;;11.08;6.92;;;;;;;13.27;71.27;98687.03;1702841;83;21038;-71
2021/05/14 03:49:07;;;;;;;11.57;7.95;;;;;;;13.42;70.76;98682.55;1700262;84;21632;-70
2021/05/14 03:51:36;;;;;;;10.18;7.75;;;;;;;13.40;70.74;98693.32;1702855;83;21026;-70
2021/05/14 03:54:03;;;;;;;9.63;7.90;;;;;;;13.33;70.74;98694.05;1685749;85;21048;-69
2021/05/14 03:56:30;;;;;;;9.25;7.33;;;;;;;13.30;70.94;98687.70;1672044;84;21097;-68
2021/05/14 03:58:57;;;;;;;9.83;7.95;;;;;;;13.47;70.27;98690.06;1677620;84;21079;-70
2021/05/14 04:01:24;;;;;;;10.88;7.97;;;;;;;13.47;70.27;98690.06;1700321;84;21090;-69
2021/05/14 04:03:50;;;;;;;12.73;8.43;;;;;;;13.45;70.50;98688.86;1710440;83;21081;-70
2021/05/14 04:06:17;;;;;;;10.30;7.65;;;;;;;13.44;70.52;98693.36;1717451;83;21026;-70
2021/05/14 04:08:43;;;;;;;10.58;8.15;;;;;;;13.44;70.64;98677.92;1700264;84;21092;-70
2021/05/14 04:16:35;;;;;;;14.28;9.28;;;;;;;13.67;69.79;98676.09;1709844;83;21049;-70
2021/05/14 04:19:02;;;;;;;10.30;7.62;;;;;;;13.71;69.65;98675.64;1701337;83;21069;-70
2021/05/14 04:21:29;;;;;;;10.10;6.70;;;;;;;13.88;69.19;98675.26;1685555;85;21045;-70
2021/05/14 04:23:56;;;;;;;11.70;8.30;;;;;;;14.00;68.63;98672.34;1726213;83;21042;-69
2021/05/14 04:26:23;;;;;;;13.10;8.43;;;;;;;14.00;68.63;98672.34;1710377;83;21077;-70
2021/05/14 04:28:49;;;;;;;12.85;7.87;;;;;;;14.03;68.56;98672.05;1703915;83;21161;-69
2021/05/14 04:31:16;;;;;;;11.80;7.85;;;;;;;14.08;68.01;98671.08;1706012;83;21570;-70
2021/05/14 04:33:42;;;;;;;10.28;6.92;;;;;;;14.08;68.01;98671.08;1700080;84;21058;-70
2021/05/14 04:36:09;;;;;;;9.38;7.25;;;;;;;14.39;67.28;98669.25;1706167;83;21093;-69
2021/05/14 04:38:35;;;;;;;10.50;7.95;;;;;;;14.39;67.28;98669.25;1701495;83;21551;-70
2021/05/14 04:41:02;;;;;;;11.10;7.85;;;;;;;14.50;67.09;98664.98;1711682;82;21035;-70
2021/05/14 04:43:28;;;;;;;11.03;7.90;;;;;;;14.63;66.41;98665.86;1709787;82;21074;-69
2021/05/14 04:45:54;;;;;;;11.97;8.13;;;;;;;14.75;65.86;98662.43;1672943;84;21060;-69
2021/05/14 04:48:21;;;;;;;11.85;7.75;;;;;;;14.42;65.26;98581.99;1689559;82;21618;-70
2021/05/14 04:50:47;;;;;;;12.90;8.40;;;;;;;15.20;64.59;98662.52;1671896;86;21057;-70
2021/05/14 04:53:15;;;;;;;11.68;7.75;;;;;;;15.63;63.76;98657.57;1708521;84;21368;-70
2021/05/14 04:55:41;;;;;;;9.33;6.97;;;;;;;16.21;62.08;98657.84;1674784;86;21062;-72
2021/05/14 04:58:08;;;;;;;9.55;6.85;;;;;;;16.96;60.42;98654.88;1703435;84;21055;-70
2021/05/14 05:00:34;;;;;;;11.83;6.62;;;;;;;17.53;58.15;98645.11;1709216;84;21063;-71
2021/05/14 05:03:00;;;;;;;9.13;6.30;;;;;;;17.82;57.30;98652.86;1708040;84;21046;-70
2021/05/14 05:05:27;;;;;;;12.15;7.50;;;;;;;17.97;56.06;98644.08;1708865;84;21047;-70
2021/05/14 05:07:53;;;;;;;12.00;7.40;;;;;;;18.02;56.71;98636.34;1666472;86;21053;-71
2021/05/14 05:10:21;;;;;;;9.23;7.10;;;;;;;18.14;55.57;98633.51;1706120;84;21094;-70
2021/05/14 05:12:47;;;;;;;11.53;7.53;;;;;;;18.26;55.56;98642.41;1690667;84;21055;-70
2021/05/14 05:15:15;;;;;;;10.28;6.78;;;;;;;18.37;55.18;98635.27;1633817;88;21066;-70
2021/05/14 05:17:41;;;;;;;11.35;7.78;;;;;;;18.62;54.16;98634.45;1684843;84;21074;-70
2021/05/14 05:20:10;;;;;;;12.05;7.33;;;;;;;18.83;54.07;98636.33;1633490;88;22255;-70
2021/05/14 05:22:36;;;;;;;11.25;7.17;;;;;;;19.10;53.62;98629.95;1634725;86;21024;-70
2021/05/14 05:25:03;;;;;;;11.73;7.33;;;;;;;19.41;52.39;98635.53;1642244;86;21593;-70
2021/05/14 05:27:30;;;;;;;12.58;7.42;;;;;;;19.69;52.12;98628.53;1657825;86;21138;-70
2021/05/14 05:29:56;;;;;;;12.60;7.72;;;;;;;19.68;51.52;98627.70;1695044;84;21016;-70
2021/05/14 05:32:22;;;;;;;10.53;6.65;;;;;;;19.59;52.26;98620.80;1666442;86;21080;-68
2021/05/14 05:34:48;;;;;;;9.10;6.50;;;;;;;19.41;52.23;98634.19;1689217;84;21043;-70
2021/05/14 05:37:15;;;;;;;13.78;6.33;;;;;;;19.09;52.90;98629.66;1709296;84;21598;-70
2021/05/14 05:39:41;;;;;;;7.87;6.17;;;;;;;18.88;53.47;98625.06;1688393;83;21690;-71
2021/05/14 05:42:08;;;;;;;9.98;6.50;;;;;;;18.77;53.79;98626.41;1675741;84;21062;-70
2021/05/14 05:44:34;;;;;;;10.53;6.33;;;;;;;18.71;53.78;98622.28;1644440;86;21102;-70
2021/05/14 05:47:00;;;;;;;14.60;6.85;;;;;;;18.57;53.76;98619.95;1709165;84;21062;-70
2021/05/14 05:49:26;;;;;;;15.03;7.72;;;;;;;18.27;53.95;98623.49;1641210;86;21627;-70
2021/05/14 05:51:55;;;;;;;11.15;6.35;;;;;;;18.04;54.61;98618.23;1650312;86;21549;-70
2021/05/14 05:54:21;;;;;;;12.13;6.78;;;;;;;17.93;54.90;98624.89;1633329;88;21100;-70
2021/05/14 05:56:50;;;;;;;9.08;6.50;;;;;;;17.90;55.14;98624.39;1647978;86;21575;-70
2021/05/14 05:59:19;;;;;;;9.53;6.67;;;;;;;17.93;55.73;98618.20;1709320;84;21058;-70
2021/05/14 06:01:46;;;;;;;13.03;6.87;;;;;;;18.06;54.95;98621.57;1675201;86;21159;-70
2021/05/14 06:04:13;;;;;;;10.40;6.47;;;;;;;18.19;54.92;98612.90;1709596;84;21015;-70
2021/05/14 06:06:39;;;;;;;9.55;6.95;;;;;;;18.25;54.63;98612.66;1709150;84;21054;-70
2021/05/14 06:09:06;;;;;;;14.65;6.47;;;;;;;18.47;54.34;98613.05;1709223;83;21031;-70
2021/05/14 06:11:32;;;;;;;8.23;6.40;;;;;;;18.76;53.52;98603.31;1708624;84;21915;-70
2021/05/14 06:13:59;;;;;;;11.28;6.05;;;;;;;19.05;53.96;98604.24;1709183;84;21085;-70
2021/05/14 06:16:26;;;;;;;8.83;5.72;;;;;;;19.35;52.77;98596.58;1709156;84;21039;-70
2021/05/14 06:19:02;;;;;;;18.57;7.50;;;;;;;19.55;52.08;98595.41;1708967;84;21082;-70
2021/05/14 06:21:24;;;;;;;9.73;5.90;;;;;;;19.68;51.49;98608.94;1708546;84;21054;-71
2021/05/14 06:23:51;;;;;;;11.12;6.10;;;;;;;19.73;51.43;98609.18;1709351;84;21062;-71
2021/05/14 06:26:19;;;;;;;9.23;6.70;;;;;;;19.78;51.12;98608.57;1709084;84;21579;-70
2021/05/14 06:28:45;;;;;;;9.43;5.72;;;;;;;19.85;50.79;98612.17;1709065;84;21662;-70
2021/05/14 06:31:12;;;;;;;14.80;6.15;;;;;;;19.79;50.96;98602.19;1709895;84;21023;-71
2021/05/14 06:33:38;;;;;;;9.23;5.37;;;;;;;19.67;51.49;98602.40;1709682;84;21043;-70
2021/05/14 06:36:05;;;;;;;7.53;5.58;;;;;;;19.57;51.58;98604.92;1709425;84;21086;-70
2021/05/14 06:38:31;;;;;;;11.73;5.62;;;;;;;19.53;51.80;98596.95;1709476;84;21039;-69
2021/05/14 06:41:00;;;;;;;6.78;5.10;;;;;;;19.53;51.87;98605.48;1709338;84;21126;-70
2021/05/14 06:43:26;;;;;;;7.15;5.35;;;;;;;19.67;51.99;98601.91;1709086;84;21070;-69
2021/05/14 06:45:53;;;;;;;14.05;7.42;;;;;;;19.85;51.59;98599.25;1709307;84;21058;-70
2021/05/14 06:48:19;;;;;;;8.83;5.90;;;;;;;19.92;52.16;98597.45;1709191;84;21562;-69
2021/05/14 06:50:46;;;;;;;7.37;5.40;;;;;;;20.05;51.77;98597.55;1709231;84;21055;-69
2021/05/14 06:53:13;;;;;;;8.10;4.42;;;;;;;20.24;50.86;98591.97;1709273;84;21066;-70
2021/05/14 06:55:39;;;;;;;6.62;4.70;;;;;;;20.33;48.35;98602.00;1709344;84;21059;-70
2021/05/14 06:58:06;;;;;;;7.67;4.60;;;;;;;20.36;49.44;98586.86;1709179;84;21086;-71
2021/05/14 07:00:33;;;;;;;8.40;4.78;;;;;;;20.37;49.07;98585.84;1709402;84;21067;-70
2021/05/14 07:03:00;;;;;;;13.50;5.80;;;;;;;20.30;49.47;98587.12;1709201;84;21048;-70
2021/05/14 07:05:26;;;;;;;10.40;4.45;;;;;;;20.36;49.71;98592.23;1709341;84;21522;-70
2021/05/14 07:07:53;;;;;;;12.58;5.50;;;;;;;20.55;49.07;98583.09;1709335;84;21376;-70
2021/05/14 07:10:20;;;;;;;9.00;5.42;;;;;;;20.73;48.57;98580.72;1709114;84;21027;-70
2021/05/14 07:12:46;;;;;;;7.35;5.08;;;;;;;20.94;48.44;98578.37;1709220;84;20995;-70
2021/05/14 07:15:13;;;;;;;8.28;4.75;;;;;;;21.16;47.40;98572.81;1709183;84;21054;-70
2021/05/14 07:17:39;;;;;;;6.97;3.77;;;;;;;21.33;47.70;98566.54;1709116;84;21086;-70
2021/05/14 07:20:07;;;;;;;11.25;4.50;;;;;;;21.50;46.33;98573.66;1709242;84;21051;-70
2021/05/14 07:22:35;;;;;;;6.42;3.98;;;;;;;21.53;45.36;98565.70;1709214;83;20999;-70
2021/05/14 07:25:04;;;;;;;7.92;4.37;;;;;;;21.45;45.42;98567.55;1709153;84;21070;-70
2021/05/14 07:27:31;;;;;;;8.70;4.10;;;;;;;21.39;44.91;98575.09;1709131;84;21054;-69
2021/05/14 07:29:57;;;;;;;7.08;4.00;;;;;;;21.35;45.12;98569.83;1709310;84;21075;-69
2021/05/14 07:32:24;;;;;;;7.83;4.10;;;;;;;21.43;44.71;98567.45;1709106;84;21043;-70
2021/05/14 07:34:54;;;;;;;8.63;3.92;;;;;;;21.49;45.23;98563.12;1708949;84;21059;-70
2021/05/14 07:37:21;;;;;;;8.35;4.00;;;;;;;21.54;44.88;98566.02;1709075;84;21066;-69
2021/05/14 07:39:47;;;;;;;11.88;4.47;;;;;;;21.55;45.24;98563.14;1709174;83;21110;-70
2021/05/14 07:42:13;;;;;;;8.53;3.40;;;;;;;21.58;45.31;98565.40;1709223;84;21051;-70
2021/05/14 07:44:40;;;;;;;8.93;3.98;;;;;;;21.53;44.02;98559.78;1709283;84;21050;-70
2021/05/14 07:47:08;;;;;;;8.10;3.60;;;;;;;21.41;44.96;98566.31;1708999;84;21066;-70
2021/05/14 07:49:34;;;;;;;6.05;3.95;;;;;;;21.29;43.35;98577.38;1709284;84;21062;-70
2021/05/14 07:54:36;;;;;;;6.78;3.98;;;;;;;20.74;45.52;98567.60;1818568;79;23375;-70
2021/05/14 07:57:03;;;;;;;8.45;4.15;;;;;;;20.61;45.39;98567.52;1792302;80;21062;-71
2021/05/14 07:59:30;;;;;;;7.28;3.77;;;;;;;20.74;45.42;98572.97;1791775;80;21094;-71
2021/05/14 08:01:57;;;;;;;7.72;4.08;;;;;;;20.71;44.45;98567.98;1791989;80;21062;-70
2021/05/14 08:04:23;;;;;;;11.15;4.75;;;;;;;20.59;45.34;98564.23;1792032;80;21034;-71
2021/05/14 08:06:49;;;;;;;10.20;4.30;;;;;;;20.49;46.46;98564.59;1792141;80;21050;-69
2021/05/14 08:09:25;;;;;;;7.20;3.87;;;;;;;20.42;46.86;98566.42;1790268;80;21018;-69
2021/05/14 08:11:50;;;;;;;7.75;4.47;;;;;;;20.36;46.98;98569.41;1790721;80;21081;-71
2021/05/14 08:14:19;;;;;;;7.67;5.12;;;;;;;20.24;47.71;98577.20;1791841;80;21022;-70
2021/05/14 08:16:45;;;;;;;15.23;5.33;;;;;;;20.08;47.81;98569.48;1791999;80;21058;-70
2021/05/14 08:19:12;;;;;;;8.68;4.65;;;;;;;20.02;48.27;98565.72;1792022;80;21053;-70
2021/05/14 08:21:45;;;;;;;9.53;5.28;;;;;;;20.03;48.12;98568.73;1792048;80;21050;-71
2021/05/14 08:24:12;;;;;;;7.85;4.17;;;;;;;20.01;47.99;98569.42;1792123;80;21022;-71
2021/05/14 08:26:39;;;;;;;8.55;4.85;;;;;;;19.98;48.51;98563.95;1788349;80;21057;-70
2021/05/14 08:29:07;;;;;;;11.25;5.30;;;;;;;19.95;48.87;98560.86;1760718;81;21069;-71
2021/05/14 08:31:39;;;;;;;16.17;5.08;;;;;;;19.97;49.31;98562.81;1760695;81;21069;-71
2021/05/14 08:34:04;;;;;;;12.03;5.00;;;;;;;20.03;49.00;98571.41;1760788;81;21045;-71
2021/05/14 08:36:31;;;;;;;14.78;5.40;;;;;;;20.08;48.72;98566.80;1760927;81;21092;-70
2021/05/14 08:38:57;;;;;;;9.55;4.83;;;;;;;20.12;48.94;98570.21;1760925;81;21093;-70
2021/05/14 08:41:24;;;;;;;20.65;5.47;;;;;;;20.15;49.27;98573.02;1760997;81;21081;-71
2021/05/14 08:43:51;;;;;;;8.63;4.70;;;;;;;20.11;49.86;98580.63;1760766;81;21085;-72
2021/05/14 08:46:25;;;;;;;7.78;4.78;;;;;;;20.14;49.84;98583.43;1760874;81;21070;-71
2021/05/14 08:48:54;;;;;;;10.75;5.00;;;;;;;20.17;50.04;98579.52;1760936;81;21061;-71
2021/05/14 08:51:27;;;;;;;16.02;5.33;;;;;;;20.23;49.76;98581.41;1760872;81;21026;-71
2021/05/14 08:53:49;;;;;;;8.55;4.60;;;;;;;20.34;49.84;98575.48;1752073;81;21578;-71
2021/05/14 08:56:16;;;;;;;7.25;4.42;;;;;;;20.42;49.96;98586.06;1747757;82;21023;-70
2021/05/14 08:58:42;;;;;;;8.85;4.10;;;;;;;20.43;49.08;98576.95;1747686;82;21042;-72
2021/05/14 09:01:08;;;;;;;6.95;4.20;;;;;;;20.48;49.21;98582.26;1747458;82;21945;-70
2021/05/14 09:04:11;;;;;;;13.18;6.60;;;;;;;20.51;49.12;98583.19;1747298;82;21608;-71
2021/05/14 09:06:41;;;;;;;20.60;9.40;;;;;;;20.49;49.52;98579.86;1746769;82;21066;-71
2021/05/14 09:09:11;;;;;;;11.30;6.53;;;;;;;20.51;49.39;98581.84;1746809;82;21090;-69
2021/05/14 09:11:44;;;;;;;15.43;5.15;;;;;;;20.56;49.43;98578.89;1746361;82;21054;-71
2021/05/14 09:14:42;;;;;;;8.10;4.25;;;;;;;20.62;48.35;98592.02;1747133;82;21110;-71
2021/05/14 09:17:11;;;;;;;8.40;4.15;;;;;;;20.59;48.71;98580.34;1747166;82;21030;-71
2021/05/14 09:19:44;;;;;;;11.65;4.45;;;;;;;20.63;48.96;98579.72;1747042;82;21550;-70
2021/05/14 09:22:21;;;;;;;8.55;4.50;;;;;;;20.65;47.81;98579.50;1747303;82;21042;-70
2021/05/14 09:24:50;;;;;;;11.12;4.40;;;;;;;20.75;47.43;98574.61;1747147;82;21101;-69
2021/05/14 09:27:30;;;;;;;10.38;4.47;;;;;;;20.84;46.35;98571.22;1746270;81;21102;-70
2021/05/14 09:30:01;;;;;;;7.15;4.85;;;;;;;20.84;45.84;98567.19;1747066;82;21000;-70
2021/05/14 09:32:33;;;;;;;7.33;4.30;;;;;;;20.74;46.65;98567.60;1746968;82;21078;-70
2021/05/14 09:35:03;;;;;;;6.90;4.08;;;;;;;20.72;47.13;98568.31;1747186;82;21086;-69
2021/05/14 09:37:29;;;;;;;7.80;4.60;;;;;;;20.64;46.64;98560.42;1747090;82;21065;-71
2021/05/14 09:40:19;;;;;;;6.58;4.50;;;;;;;20.61;47.31;98559.46;1747203;82;21572;-72
2021/05/14 09:42:49;;;;;;;7.92;4.30;;;;;;;20.58;47.01;98558.01;1745941;82;21002;-71
2021/05/14 09:45:20;;;;;;;13.40;4.67;;;;;;;20.51;47.26;98554.98;1744675;82;21042;-71
2021/05/14 09:48:26;;;;;;;8.15;4.60;;;;;;;20.53;47.12;98559.13;1742509;82;21018;-70
2021/05/14 09:50:51;;;;;;;11.03;4.22;;;;;;;20.61;46.76;98551.41;1740640;82;21055;-70
2021/05/14 09:53:21;;;;;;;7.42;4.25;;;;;;;20.55;46.87;98549.52;1740936;82;21595;-71
2021/05/14 09:55:59;;;;;;;7.08;4.05;;;;;;;20.49;47.07;98551.67;1740294;82;21542;-71
2021/05/14 09:58:25;;;;;;;7.28;4.20;;;;;;;20.51;46.92;98552.30;1744219;82;21558;-71
2021/05/14 10:00:51;;;;;;;7.53;4.47;;;;;;;20.55;46.87;98553.55;1745781;82;21035;-70
2021/05/14 10:03:20;;;;;;;6.10;4.00;;;;;;;20.55;46.97;98545.49;1740676;82;21542;-70
2021/05/14 10:05:48;;;;;;;8.95;4.55;;;;;;;20.55;46.84;98540.97;1740321;82;21038;-70
2021/05/14 10:08:19;;;;;;;5.40;3.92;;;;;;;20.04;46.74;98462.20;1739626;82;21042;-70
2021/05/14 10:10:45;;;;;;;7.47;3.87;;;;;;;20.61;46.90;98537.97;1739459;82;21054;-70
2021/05/14 10:13:11;;;;;;;7.03;4.25;;;;;;;20.69;47.24;98549.89;1739735;82;21054;-69
2021/05/14 10:15:38;;;;;;;6.15;4.00;;;;;;;20.70;46.51;98546.67;1739687;82;21043;-69
2021/05/14 10:18:09;;;;;;;12.05;4.35;;;;;;;20.65;46.98;98546.45;1745221;82;21047;-69
2021/05/14 10:20:36;;;;;;;7.35;3.80;;;;;;;20.63;45.97;98541.30;1743733;82;21071;-70
2021/05/14 10:23:04;;;;;;;6.72;4.00;;;;;;;20.59;46.46;98540.05;1740973;82;21633;-69
2021/05/14 10:25:42;;;;;;;6.72;3.85;;;;;;;20.48;47.12;98539.30;1740231;82;21665;-69
2021/05/14 10:28:17;;;;;;;6.62;3.90;;;;;;;20.35;47.14;98547.61;1736696;82;21102;-69
2021/05/14 10:31:08;;;;;;;4.53;3.42;;;;;;;20.25;47.09;98541.78;1739645;82;21599;-69
2021/05/14 10:33:43;;;;;;;5.05;3.58;;;;;;;20.04;47.64;98548.92;1739489;82;21134;-70
2021/05/14 10:36:24;;;;;;;7.58;3.80;;;;;;;19.74;49.07;98552.33;1739190;82;21062;-69
2021/05/14 10:39:17;;;;;;;10.60;6.50;;;;;;;19.47;48.22;98557.50;1723949;82;21062;-69
2021/05/14 10:41:58;;;;;;;6.70;4.33;;;;;;;19.10;49.01;98549.56;1741935;82;21039;-69
2021/05/14 10:44:53;;;;;;;7.47;4.17;;;;;;;18.81;50.12;98565.23;1740946;82;21012;-69
2021/05/14 10:47:28;;;;;;;6.15;4.05;;;;;;;18.49;51.17;98564.18;1717295;83;21574;-69
2021/05/14 10:50:04;;;;;;;6.80;4.67;;;;;;;18.23;52.68;98566.53;1717343;83;21093;-70
2021/05/14 10:52:32;;;;;;;5.55;4.45;;;;;;;18.18;52.98;98565.26;1733893;82;21043;-69
2021/05/14 10:54:58;;;;;;;7.37;4.78;;;;;;;18.15;53.99;98573.64;1748488;81;21051;-70
2021/05/14 10:57:46;;;;;;;12.95;5.50;;;;;;;18.26;54.29;98567.48;1752929;82;22164;-69
2021/05/14 11:00:31;;;;;;;7.70;4.62;;;;;;;18.34;54.14;98574.09;1753322;82;21085;-69
2021/05/14 11:03:15;;;;;;;7.87;5.20;;;;;;;18.39;54.09;98572.17;1746873;82;21042;-70
2021/05/14 11:05:50;;;;;;;6.28;5.10;;;;;;;18.46;53.89;98572.57;1746804;82;21018;-70
2021/05/14 11:08:39;;;;;;;6.60;4.70;;;;;;;18.56;53.20;98578.98;1719484;82;21097;-70
2021/05/14 11:11:11;;;;;;;5.47;4.28;;;;;;;18.70;53.29;98564.41;1749107;82;21038;-70
2021/05/14 11:13:51;;;;;;;7.33;4.10;;;;;;;18.94;53.08;98567.23;1749472;82;21026;-69
2021/05/14 11:16:44;;;;;;;4.95;3.77;;;;;;;19.17;50.92;98563.05;1724839;83;21559;-69
2021/05/14 11:19:26;;;;;;;10.93;4.30;;;;;;;19.25;50.94;98564.77;1744779;82;21007;-69
2021/05/14 11:22:17;;;;;;;6.03;3.90;;;;;;;19.38;50.53;98566.20;1749504;82;21066;-70
2021/05/14 11:24:53;;;;;;;5.17;3.45;;;;;;;19.51;48.59;98564.66;1748608;82;21057;-70
2021/05/14 11:27:34;;;;;;;7.87;3.85;;;;;;;19.53;48.32;98563.92;1752119;82;21156;-70
2021/05/14 11:30:07;;;;;;;14.03;4.22;;;;;;;19.58;48.39;98566.36;1752266;82;21023;-71
2021/05/14 11:32:36;;;;;;;20.43;3.90;;;;;;;19.65;47.74;98565.91;1749574;82;21503;-70
2021/05/14 11:35:10;;;;;;;20.23;5.12;;;;;;;19.70;47.68;98563.14;1749298;81;21594;-70
2021/05/14 11:37:54;;;;;;;13.20;4.10;;;;;;;19.76;47.37;98555.66;1747834;82;21034;-70
2021/05/14 11:40:35;;;;;;;15.13;4.55;;;;;;;19.85;47.32;98553.16;1747455;82;21057;-69
2021/05/14 11:43:11;;;;;;;17.35;4.90;;;;;;;19.93;47.55;98550.82;1747652;82;21014;-69
2021/05/14 11:45:41;;;;;;;6.35;3.90;;;;;;;20.00;48.66;98544.98;1746546;82;21038;-69
2021/05/14 11:48:22;;;;;;;5.60;3.70;;;;;;;20.16;49.19;98543.00;1749199;81;21566;-69